Withee, Wisconsin
Current Conditions -  °F | °C
As of 9:35 AM on Thursday 30 Oct 2014 (Local Time) from KMDZ Reporting Station
Overcast Overcast  
Wind Chill: 35°   Ceiling: 6500
Heat Index: 35°   Visibility: 10mi
Dew Point: 32°   Wind: 0mph
Humidity: 91%   Direction: NA
Pressure: 30.06"   Gusts: NA
Location:  44.96°N, 90.6°W
Report Text: KMDZ 301435Z AUTO 00000KT 10SM OVC065 02/00 A3006 RMK AO2 T00150002
Loading
Personal Weather Stations






























Interactive Weather Map
Tropical Storm Tracking
New forecast layout! Learn more

10-Day Weather Forecast

Advertisements
Track Severe Weather on mobile